Terminal Aerodrome Forecast
Issued by NWS

Home | Current Version | Previous Version | Text Only | Print | Product List | Glossary On
Versions: 1 2 3 4 5 6 7 8 9 10 11 12 13 14 15 16 17 18 19 20 21 22 23 24 25 26
000
FTUS41 KBUF 200500
TAFIAG
TAF
KIAG 200531Z 2006/2106 15007KT P6SM VCSH OVC070
     FM201100 16004KT 6SM -SHRA OVC070
     FM201500 18006KT 4SM SHRA VCTS SCT040CB OVC060
     FM202000 20009KT P6SM VCSH BKN060 OVC250
     FM210200 18004KT 4SM SHRA OVC070
     FM210400 18004KT 6SM -SHRA OVC060=

USA.gov is the U.S. government's official web portal to all federal, state and local government web resources and services.